Terminal Aerodrome Forecast
Issued by NWS Jacksonville, FL

Home | Current Version | Previous Version | Text Only | Print | Product List | Glossary On
Versions: 1 2 3 4 5 6 7 8 9 10 11 12 13 14 15 16 17 18 19 20 21 22 23 24 25 26 27 28 29 30
000
FTUS42 KJAX 041121
TAFSSI
TAF
KSSI 041121Z 0412/0512 18004KT 4SM BR SCT005
      TEMPO 0412/0414 1SM BR BKN002
     FM041500 19008KT P6SM SCT020
     FM041700 20011KT P6SM SCT250
     FM050100 19006KT P6SM SCT250
     FM050800 20004KT 4SM BR SCT010=

USA.gov is the U.S. government's official web portal to all federal, state and local government web resources and services.